sensor_id;sensor_type;location;lat;lon;timestamp;temperature;humidity
20384;DHT22;46458;50.966;7.002;2023-04-24T00:02:01;12.80;99.90
20384;DHT22;46458;50.966;7.002;2023-04-24T00:04:32;12.80;99.90
20384;DHT22;46458;50.966;7.002;2023-04-24T00:07:01;12.80;99.90
20384;DHT22;46458;50.966;7.002;2023-04-24T00:09:32;12.80;99.90
20384;DHT22;46458;50.966;7.002;2023-04-24T00:12:01;12.80;99.90
20384;DHT22;46458;50.966;7.002;2023-04-24T00:14:31;12.80;99.90
20384;DHT22;46458;50.966;7.002;2023-04-24T00:17:03;12.80;99.90
20384;DHT22;46458;50.966;7.002;2023-04-24T00:19:32;12.80;99.90
20384;DHT22;46458;50.966;7.002;2023-04-24T00:22:03;12.70;99.90
20384;DHT22;46458;50.966;7.002;2023-04-24T00:24:32;12.80;99.90
20384;DHT22;46458;50.966;7.002;2023-04-24T00:27:00;12.70;99.90
20384;DHT22;46458;50.966;7.002;2023-04-24T00:29:29;12.70;99.90
20384;DHT22;46458;50.966;7.002;2023-04-24T00:31:58;12.60;99.90
20384;DHT22;46458;50.966;7.002;2023-04-24T00:34:30;12.60;99.90
20384;DHT22;46458;50.966;7.002;2023-04-24T00:36:59;12.60;99.90
20384;DHT22;46458;50.966;7.002;2023-04-24T00:39:27;12.60;99.90
20384;DHT22;46458;50.966;7.002;2023-04-24T00:41:57;12.60;99.90
20384;DHT22;46458;50.966;7.002;2023-04-24T00:44:28;12.60;99.90
20384;DHT22;46458;50.966;7.002;2023-04-24T00:46:57;12.60;99.90
20384;DHT22;46458;50.966;7.002;2023-04-24T00:49:29;12.60;99.90
20384;DHT22;46458;50.966;7.002;2023-04-24T00:51:58;12.60;99.90
20384;DHT22;46458;50.966;7.002;2023-04-24T00:54:27;12.60;99.90
20384;DHT22;46458;50.966;7.002;2023-04-24T00:56:57;12.60;99.90
20384;DHT22;46458;50.966;7.002;2023-04-24T00:59:27;12.60;99.90
20384;DHT22;46458;50.966;7.002;2023-04-24T01:01:56;12.60;99.90
20384;DHT22;46458;50.966;7.002;2023-04-24T01:04:34;12.60;99.90
20384;DHT22;46458;50.966;7.002;2023-04-24T01:07:04;12.60;99.90
20384;DHT22;46458;50.966;7.002;2023-04-24T01:09:36;12.60;99.90
20384;DHT22;46458;50.966;7.002;2023-04-24T01:12:06;12.50;99.90
20384;DHT22;46458;50.966;7.002;2023-04-24T01:14:40;12.50;99.90
20384;DHT22;46458;50.966;7.002;2023-04-24T01:17:09;12.50;99.90
20384;DHT22;46458;50.966;7.002;2023-04-24T01:19:40;12.50;99.90
20384;DHT22;46458;50.966;7.002;2023-04-24T01:22:14;12.40;99.90
20384;DHT22;46458;50.966;7.002;2023-04-24T01:24:46;12.40;99.90
20384;DHT22;46458;50.966;7.002;2023-04-24T01:27:15;12.40;99.90
20384;DHT22;46458;50.966;7.002;2023-04-24T01:29:45;12.30;99.90
20384;DHT22;46458;50.966;7.002;2023-04-24T01:32:15;12.30;99.90
20384;DHT22;46458;50.966;7.002;2023-04-24T01:34:47;12.30;99.90
20384;DHT22;46458;50.966;7.002;2023-04-24T01:37:19;12.30;99.90
20384;DHT22;46458;50.966;7.002;2023-04-24T01:39:49;12.20;99.90
20384;DHT22;46458;50.966;7.002;2023-04-24T01:42:21;12.20;99.90
20384;DHT22;46458;50.966;7.002;2023-04-24T01:44:50;12.20;99.90
20384;DHT22;46458;50.966;7.002;2023-04-24T01:47:19;12.00;99.90
20384;DHT22;46458;50.966;7.002;2023-04-24T01:49:50;11.90;99.90
20384;DHT22;46458;50.966;7.002;2023-04-24T01:52:22;11.80;99.90
20384;DHT22;46458;50.966;7.002;2023-04-24T01:54:52;11.80;99.90
20384;DHT22;46458;50.966;7.002;2023-04-24T01:57:22;11.70;99.90
20384;DHT22;46458;50.966;7.002;2023-04-24T01:59:51;11.60;99.90
20384;DHT22;46458;50.966;7.002;2023-04-24T02:02:20;11.60;99.90
20384;DHT22;46458;50.966;7.002;2023-04-24T02:04:52;11.40;99.90
20384;DHT22;46458;50.966;7.002;2023-04-24T02:07:24;11.30;99.90
20384;DHT22;46458;50.966;7.002;2023-04-24T02:09:53;11.30;99.90
20384;DHT22;46458;50.966;7.002;2023-04-24T02:12:21;11.20;99.90
20384;DHT22;46458;50.966;7.002;2023-04-24T02:14:51;11.20;99.90
20384;DHT22;46458;50.966;7.002;2023-04-24T02:17:22;11.30;99.90
20384;DHT22;46458;50.966;7.002;2023-04-24T02:19:51;11.10;99.90
20384;DHT22;46458;50.966;7.002;2023-04-24T02:22:20;11.00;99.90
20384;DHT22;46458;50.966;7.002;2023-04-24T02:24:52;10.90;99.90
20384;DHT22;46458;50.966;7.002;2023-04-24T02:27:20;10.90;99.90
20384;DHT22;46458;50.966;7.002;2023-04-24T02:29:49;10.90;99.90
20384;DHT22;46458;50.966;7.002;2023-04-24T02:32:18;10.90;99.90
20384;DHT22;46458;50.966;7.002;2023-04-24T02:34:47;10.90;99.90
20384;DHT22;46458;50.966;7.002;2023-04-24T02:37:16;10.90;99.90
20384;DHT22;46458;50.966;7.002;2023-04-24T02:39:44;10.70;99.90
20384;DHT22;46458;50.966;7.002;2023-04-24T02:42:16;10.70;99.90
20384;DHT22;46458;50.966;7.002;2023-04-24T02:44:46;10.70;99.90
20384;DHT22;46458;50.966;7.002;2023-04-24T02:47:17;10.70;99.90
20384;DHT22;46458;50.966;7.002;2023-04-24T02:49:46;10.70;99.90
20384;DHT22;46458;50.966;7.002;2023-04-24T02:52:18;10.70;99.90
20384;DHT22;46458;50.966;7.002;2023-04-24T02:54:47;10.70;99.90
20384;DHT22;46458;50.966;7.002;2023-04-24T02:57:18;10.70;99.90
20384;DHT22;46458;50.966;7.002;2023-04-24T02:59:47;10.70;99.90
20384;DHT22;46458;50.966;7.002;2023-04-24T03:02:16;10.80;99.90
20384;DHT22;46458;50.966;7.002;2023-04-24T03:04:46;10.70;99.90
20384;DHT22;46458;50.966;7.002;2023-04-24T03:07:15;10.70;99.90
20384;DHT22;46458;50.966;7.002;2023-04-24T03:09:46;10.80;99.90
20384;DHT22;46458;50.966;7.002;2023-04-24T03:12:19;10.80;99.90
20384;DHT22;46458;50.966;7.002;2023-04-24T03:14:50;10.80;99.90
20384;DHT22;46458;50.966;7.002;2023-04-24T03:17:19;10.80;99.90
20384;DHT22;46458;50.966;7.002;2023-04-24T03:19:51;10.70;99.90
20384;DHT22;46458;50.966;7.002;2023-04-24T03:22:20;10.70;99.90
20384;DHT22;46458;50.966;7.002;2023-04-24T03:24:52;10.70;99.90
20384;DHT22;46458;50.966;7.002;2023-04-24T03:27:23;10.70;99.90
20384;DHT22;46458;50.966;7.002;2023-04-24T03:30:00;10.70;99.90
20384;DHT22;46458;50.966;7.002;2023-04-24T03:32:40;10.60;99.90
20384;DHT22;46458;50.966;7.002;2023-04-24T03:35:12;10.70;99.90
20384;DHT22;46458;50.966;7.002;2023-04-24T03:37:48;10.70;99.90
20384;DHT22;46458;50.966;7.002;2023-04-24T03:40:35;10.80;99.90
20384;DHT22;46458;50.966;7.002;2023-04-24T03:43:19;10.80;99.90
20384;DHT22;46458;50.966;7.002;2023-04-24T03:45:49;10.70;99.90
20384;DHT22;46458;50.966;7.002;2023-04-24T03:48:18;10.60;99.90
20384;DHT22;46458;50.966;7.002;2023-04-24T03:50:47;10.50;99.90
20384;DHT22;46458;50.966;7.002;2023-04-24T03:53:16;10.50;99.90
20384;DHT22;46458;50.966;7.002;2023-04-24T03:55:46;10.40;99.90
20384;DHT22;46458;50.966;7.002;2023-04-24T03:58:17;10.40;99.90
20384;DHT22;46458;50.966;7.002;2023-04-24T04:00:50;10.50;99.90
20384;DHT22;46458;50.966;7.002;2023-04-24T04:03:38;10.50;99.90
20384;DHT22;46458;50.966;7.002;2023-04-24T04:06:07;10.40;99.90
20384;DHT22;46458;50.966;7.002;2023-04-24T04:08:39;10.40;99.90
20384;DHT22;46458;50.966;7.002;2023-04-24T04:11:11;10.40;99.90
20384;DHT22;46458;50.966;7.002;2023-04-24T04:13:42;10.50;99.90
20384;DHT22;46458;50.966;7.002;2023-04-24T04:16:13;10.60;99.90
20384;DHT22;46458;50.966;7.002;2023-04-24T04:18:43;10.50;99.90
20384;DHT22;46458;50.966;7.002;2023-04-24T04:21:12;10.50;99.90
20384;DHT22;46458;50.966;7.002;2023-04-24T04:23:41;10.50;99.90
20384;DHT22;46458;50.966;7.002;2023-04-24T04:26:17;10.50;99.90
20384;DHT22;46458;50.966;7.002;2023-04-24T04:29:05;10.60;99.90
20384;DHT22;46458;50.966;7.002;2023-04-24T04:31:38;10.60;99.90
20384;DHT22;46458;50.966;7.002;2023-04-24T04:34:11;10.60;99.90
20384;DHT22;46458;50.966;7.002;2023-04-24T04:36:41;10.50;99.90
20384;DHT22;46458;50.966;7.002;2023-04-24T04:39:28;10.60;99.90
20384;DHT22;46458;50.966;7.002;2023-04-24T04:42:02;10.60;99.90
20384;DHT22;46458;50.966;7.002;2023-04-24T04:44:41;10.60;99.90
20384;DHT22;46458;50.966;7.002;2023-04-24T04:47:15;10.60;99.90
20384;DHT22;46458;50.966;7.002;2023-04-24T04:49:45;10.70;99.90
20384;DHT22;46458;50.966;7.002;2023-04-24T04:52:23;10.70;99.90
20384;DHT22;46458;50.966;7.002;2023-04-24T04:55:03;10.70;99.90
20384;DHT22;46458;50.966;7.002;2023-04-24T04:57:52;10.60;99.90
20384;DHT22;46458;50.966;7.002;2023-04-24T05:00:24;10.50;99.90
20384;DHT22;46458;50.966;7.002;2023-04-24T05:02:55;10.50;99.90
20384;DHT22;46458;50.966;7.002;2023-04-24T05:05:23;10.60;99.90
20384;DHT22;46458;50.966;7.002;2023-04-24T05:07:52;10.60;99.90
20384;DHT22;46458;50.966;7.002;2023-04-24T05:10:24;10.60;99.90
20384;DHT22;46458;50.966;7.002;2023-04-24T05:12:55;10.70;99.90
20384;DHT22;46458;50.966;7.002;2023-04-24T05:15:26;10.60;99.90
20384;DHT22;46458;50.966;7.002;2023-04-24T05:17:56;10.60;99.90
20384;DHT22;46458;50.966;7.002;2023-04-24T05:20:26;10.60;99.90
20384;DHT22;46458;50.966;7.002;2023-04-24T05:22:54;10.60;99.90
20384;DHT22;46458;50.966;7.002;2023-04-24T05:25:27;10.70;99.90
20384;DHT22;46458;50.966;7.002;2023-04-24T05:28:04;10.70;99.90
20384;DHT22;46458;50.966;7.002;2023-04-24T05:30:35;10.70;99.90
20384;DHT22;46458;50.966;7.002;2023-04-24T05:33:05;10.70;99.90
20384;DHT22;46458;50.966;7.002;2023-04-24T05:35:35;10.80;99.90
20384;DHT22;46458;50.966;7.002;2023-04-24T05:38:04;10.80;99.90
20384;DHT22;46458;50.966;7.002;2023-04-24T05:40:36;10.80;99.90
20384;DHT22;46458;50.966;7.002;2023-04-24T05:43:05;10.70;99.90
20384;DHT22;46458;50.966;7.002;2023-04-24T05:45:38;10.70;99.90
20384;DHT22;46458;50.966;7.002;2023-04-24T05:48:08;10.60;99.90
20384;DHT22;46458;50.966;7.002;2023-04-24T05:50:39;10.60;99.90
20384;DHT22;46458;50.966;7.002;2023-04-24T05:53:09;10.60;99.90
20384;DHT22;46458;50.966;7.002;2023-04-24T05:55:39;10.60;99.90
20384;DHT22;46458;50.966;7.002;2023-04-24T05:58:08;10.60;99.90
20384;DHT22;46458;50.966;7.002;2023-04-24T06:00:40;10.60;99.90
20384;DHT22;46458;50.966;7.002;2023-04-24T06:03:12;10.60;99.90
20384;DHT22;46458;50.966;7.002;2023-04-24T06:05:41;10.70;99.90
20384;DHT22;46458;50.966;7.002;2023-04-24T06:08:10;10.60;99.90
20384;DHT22;46458;50.966;7.002;2023-04-24T06:10:42;10.70;99.90
20384;DHT22;46458;50.966;7.002;2023-04-24T06:13:11;10.70;99.90
20384;DHT22;46458;50.966;7.002;2023-04-24T06:15:50;10.70;99.90
20384;DHT22;46458;50.966;7.002;2023-04-24T06:18:27;10.70;99.90
20384;DHT22;46458;50.966;7.002;2023-04-24T06:20:56;10.70;99.90
20384;DHT22;46458;50.966;7.002;2023-04-24T06:23:25;10.70;99.90
20384;DHT22;46458;50.966;7.002;2023-04-24T06:25:55;10.60;99.90
20384;DHT22;46458;50.966;7.002;2023-04-24T06:28:24;10.50;99.90
20384;DHT22;46458;50.966;7.002;2023-04-24T06:30:55;10.50;99.90
20384;DHT22;46458;50.966;7.002;2023-04-24T06:33:24;10.50;99.90
20384;DHT22;46458;50.966;7.002;2023-04-24T06:35:53;10.30;99.90
20384;DHT22;46458;50.966;7.002;2023-04-24T06:38:22;10.30;99.90
20384;DHT22;46458;50.966;7.002;2023-04-24T06:40:51;10.40;99.90
20384;DHT22;46458;50.966;7.002;2023-04-24T06:43:20;10.40;99.90
20384;DHT22;46458;50.966;7.002;2023-04-24T06:45:49;10.30;99.90
20384;DHT22;46458;50.966;7.002;2023-04-24T06:48:20;10.30;99.90
20384;DHT22;46458;50.966;7.002;2023-04-24T06:50:51;10.20;99.90
20384;DHT22;46458;50.966;7.002;2023-04-24T06:53:22;10.10;99.90
20384;DHT22;46458;50.966;7.002;2023-04-24T06:55:51;10.00;99.90
20384;DHT22;46458;50.966;7.002;2023-04-24T06:58:20;9.90;99.90
20384;DHT22;46458;50.966;7.002;2023-04-24T07:00:49;10.10;99.90
20384;DHT22;46458;50.966;7.002;2023-04-24T07:03:23;9.80;99.90
20384;DHT22;46458;50.966;7.002;2023-04-24T07:05:55;9.80;99.90
20384;DHT22;46458;50.966;7.002;2023-04-24T07:08:23;9.80;99.90
20384;DHT22;46458;50.966;7.002;2023-04-24T07:10:52;9.70;99.90
20384;DHT22;46458;50.966;7.002;2023-04-24T07:13:22;9.80;99.90
20384;DHT22;46458;50.966;7.002;2023-04-24T07:15:53;9.80;99.90
20384;DHT22;46458;50.966;7.002;2023-04-24T07:18:24;9.80;99.90
20384;DHT22;46458;50.966;7.002;2023-04-24T07:20:54;9.70;99.90
20384;DHT22;46458;50.966;7.002;2023-04-24T07:23:22;9.60;99.90
20384;DHT22;46458;50.966;7.002;2023-04-24T07:25:51;9.60;99.90
20384;DHT22;46458;50.966;7.002;2023-04-24T07:28:20;9.60;99.90
20384;DHT22;46458;50.966;7.002;2023-04-24T07:30:49;9.60;99.90
20384;DHT22;46458;50.966;7.002;2023-04-24T07:33:19;9.60;99.90
20384;DHT22;46458;50.966;7.002;2023-04-24T07:35:51;9.50;99.90
20384;DHT22;46458;50.966;7.002;2023-04-24T07:38:20;9.50;99.90
20384;DHT22;46458;50.966;7.002;2023-04-24T07:40:51;9.50;99.90
20384;DHT22;46458;50.966;7.002;2023-04-24T07:43:21;9.40;99.90
20384;DHT22;46458;50.966;7.002;2023-04-24T07:45:50;9.30;99.90
20384;DHT22;46458;50.966;7.002;2023-04-24T07:48:19;9.20;99.90
20384;DHT22;46458;50.966;7.002;2023-04-24T07:50:51;9.20;99.90
20384;DHT22;46458;50.966;7.002;2023-04-24T07:53:19;9.20;99.90
20384;DHT22;46458;50.966;7.002;2023-04-24T07:55:48;9.10;99.90
20384;DHT22;46458;50.966;7.002;2023-04-24T07:58:17;9.00;99.90
20384;DHT22;46458;50.966;7.002;2023-04-24T08:00:46;8.90;99.90
20384;DHT22;46458;50.966;7.002;2023-04-24T08:03:15;8.90;99.90
20384;DHT22;46458;50.966;7.002;2023-04-24T08:05:45;8.80;99.90
20384;DHT22;46458;50.966;7.002;2023-04-24T08:08:18;8.70;99.90
20384;DHT22;46458;50.966;7.002;2023-04-24T08:10:47;8.60;99.90
20384;DHT22;46458;50.966;7.002;2023-04-24T08:13:15;8.50;99.90
20384;DHT22;46458;50.966;7.002;2023-04-24T08:15:47;8.60;99.90
20384;DHT22;46458;50.966;7.002;2023-04-24T08:18:16;8.50;99.90
20384;DHT22;46458;50.966;7.002;2023-04-24T08:20:45;8.40;99.90
20384;DHT22;46458;50.966;7.002;2023-04-24T08:23:16;8.40;99.90
20384;DHT22;46458;50.966;7.002;2023-04-24T08:25:45;8.40;99.90
20384;DHT22;46458;50.966;7.002;2023-04-24T08:28:14;8.30;99.90
20384;DHT22;46458;50.966;7.002;2023-04-24T08:30:46;8.30;99.90
20384;DHT22;46458;50.966;7.002;2023-04-24T08:33:20;8.20;99.90
20384;DHT22;46458;50.966;7.002;2023-04-24T08:35:48;8.20;99.90
20384;DHT22;46458;50.966;7.002;2023-04-24T08:38:20;8.60;99.90
20384;DHT22;46458;50.966;7.002;2023-04-24T08:40:49;8.10;99.90
20384;DHT22;46458;50.966;7.002;2023-04-24T08:43:18;8.10;99.90
20384;DHT22;46458;50.966;7.002;2023-04-24T08:45:48;8.10;99.90
20384;DHT22;46458;50.966;7.002;2023-04-24T08:48:18;8.10;99.90
20384;DHT22;46458;50.966;7.002;2023-04-24T08:50:48;8.00;99.90
20384;DHT22;46458;50.966;7.002;2023-04-24T08:53:28;8.00;99.90
20384;DHT22;46458;50.966;7.002;2023-04-24T08:55:57;8.00;99.90
20384;DHT22;46458;50.966;7.002;2023-04-24T08:58:27;8.00;99.90
20384;DHT22;46458;50.966;7.002;2023-04-24T09:00:59;8.00;99.90
20384;DHT22;46458;50.966;7.002;2023-04-24T09:03:29;7.90;99.90
20384;DHT22;46458;50.966;7.002;2023-04-24T09:05:59;8.00;99.90
20384;DHT22;46458;50.966;7.002;2023-04-24T09:08:31;8.00;99.90
20384;DHT22;46458;50.966;7.002;2023-04-24T09:11:04;8.10;99.90
20384;DHT22;46458;50.966;7.002;2023-04-24T09:13:33;8.10;99.90
20384;DHT22;46458;50.966;7.002;2023-04-24T09:16:05;8.10;99.90
20384;DHT22;46458;50.966;7.002;2023-04-24T09:18:34;8.10;99.90
20384;DHT22;46458;50.966;7.002;2023-04-24T09:21:06;8.10;99.90
20384;DHT22;46458;50.966;7.002;2023-04-24T09:23:38;8.20;99.90
20384;DHT22;46458;50.966;7.002;2023-04-24T09:26:09;8.20;99.90
20384;DHT22;46458;50.966;7.002;2023-04-24T09:28:40;8.30;99.90
20384;DHT22;46458;50.966;7.002;2023-04-24T09:31:13;8.30;99.90
20384;DHT22;46458;50.966;7.002;2023-04-24T09:33:53;8.40;99.90
20384;DHT22;46458;50.966;7.002;2023-04-24T09:36:30;8.40;99.90
20384;DHT22;46458;50.966;7.002;2023-04-24T09:39:06;8.50;99.90
20384;DHT22;46458;50.966;7.002;2023-04-24T09:41:44;8.50;99.90
20384;DHT22;46458;50.966;7.002;2023-04-24T09:44:15;8.60;99.90
20384;DHT22;46458;50.966;7.002;2023-04-24T09:46:46;8.60;99.90
20384;DHT22;46458;50.966;7.002;2023-04-24T09:49:25;8.70;99.90
20384;DHT22;46458;50.966;7.002;2023-04-24T09:52:03;8.70;99.90
20384;DHT22;46458;50.966;7.002;2023-04-24T09:54:35;8.80;99.90
20384;DHT22;46458;50.966;7.002;2023-04-24T09:57:06;8.90;99.90
20384;DHT22;46458;50.966;7.002;2023-04-24T09:59:42;8.80;99.90
20384;DHT22;46458;50.966;7.002;2023-04-24T10:02:17;8.80;99.90
20384;DHT22;46458;50.966;7.002;2023-04-24T10:04:57;8.90;99.90
20384;DHT22;46458;50.966;7.002;2023-04-24T10:07:26;8.90;99.90
20384;DHT22;46458;50.966;7.002;2023-04-24T10:10:06;8.90;99.90
20384;DHT22;46458;50.966;7.002;2023-04-24T10:12:35;9.00;99.90
20384;DHT22;46458;50.966;7.002;2023-04-24T10:15:06;9.00;99.90
20384;DHT22;46458;50.966;7.002;2023-04-24T10:17:35;9.10;99.90
20384;DHT22;46458;50.966;7.002;2023-04-24T10:20:06;9.10;99.90
20384;DHT22;46458;50.966;7.002;2023-04-24T10:22:37;9.20;99.90
20384;DHT22;46458;50.966;7.002;2023-04-24T10:25:13;9.20;99.90
20384;DHT22;46458;50.966;7.002;2023-04-24T10:27:43;9.30;99.90
20384;DHT22;46458;50.966;7.002;2023-04-24T10:30:13;9.30;99.90
20384;DHT22;46458;50.966;7.002;2023-04-24T10:32:42;9.40;99.90
20384;DHT22;46458;50.966;7.002;2023-04-24T10:35:15;9.50;99.90
20384;DHT22;46458;50.966;7.002;2023-04-24T10:37:46;9.60;99.90
20384;DHT22;46458;50.966;7.002;2023-04-24T10:40:26;9.80;99.90
20384;DHT22;46458;50.966;7.002;2023-04-24T10:42:56;9.80;99.90
20384;DHT22;46458;50.966;7.002;2023-04-24T10:45:25;9.90;99.90
20384;DHT22;46458;50.966;7.002;2023-04-24T10:47:58;9.80;99.90
20384;DHT22;46458;50.966;7.002;2023-04-24T10:50:42;9.80;99.90
20384;DHT22;46458;50.966;7.002;2023-04-24T10:53:17;9.80;99.90
20384;DHT22;46458;50.966;7.002;2023-04-24T10:55:57;9.80;99.90
20384;DHT22;46458;50.966;7.002;2023-04-24T10:58:37;9.80;99.90
20384;DHT22;46458;50.966;7.002;2023-04-24T11:01:07;9.90;99.90
20384;DHT22;46458;50.966;7.002;2023-04-24T11:03:36;10.00;99.90
20384;DHT22;46458;50.966;7.002;2023-04-24T11:06:08;10.00;99.90
20384;DHT22;46458;50.966;7.002;2023-04-24T11:08:42;9.90;99.90
20384;DHT22;46458;50.966;7.002;2023-04-24T11:11:17;10.10;99.90
20384;DHT22;46458;50.966;7.002;2023-04-24T11:14:03;9.90;99.90
20384;DHT22;46458;50.966;7.002;2023-04-24T11:16:51;9.90;99.90
20384;DHT22;46458;50.966;7.002;2023-04-24T11:19:24;9.70;99.90
20384;DHT22;46458;50.966;7.002;2023-04-24T11:21:57;9.60;99.90
20384;DHT22;46458;50.966;7.002;2023-04-24T11:24:32;9.50;99.90
20384;DHT22;46458;50.966;7.002;2023-04-24T11:27:14;9.60;99.90
20384;DHT22;46458;50.966;7.002;2023-04-24T11:29:45;9.50;99.90
20384;DHT22;46458;50.966;7.002;2023-04-24T11:32:24;9.60;99.90
20384;DHT22;46458;50.966;7.002;2023-04-24T11:34:56;9.60;99.90
20384;DHT22;46458;50.966;7.002;2023-04-24T11:37:27;9.80;99.90
20384;DHT22;46458;50.966;7.002;2023-04-24T11:39:57;9.90;99.90
20384;DHT22;46458;50.966;7.002;2023-04-24T11:42:33;10.10;99.90
20384;DHT22;46458;50.966;7.002;2023-04-24T11:45:08;10.20;99.90
20384;DHT22;46458;50.966;7.002;2023-04-24T11:47:41;10.20;99.90
20384;DHT22;46458;50.966;7.002;2023-04-24T11:50:12;10.10;99.90
20384;DHT22;46458;50.966;7.002;2023-04-24T11:52:42;10.00;99.90
20384;DHT22;46458;50.966;7.002;2023-04-24T11:55:23;9.90;99.90
20384;DHT22;46458;50.966;7.002;2023-04-24T11:57:57;10.00;99.90
20384;DHT22;46458;50.966;7.002;2023-04-24T12:00:28;10.10;99.90
20384;DHT22;46458;50.966;7.002;2023-04-24T12:03:05;10.10;99.90
20384;DHT22;46458;50.966;7.002;2023-04-24T12:05:34;10.20;99.90
20384;DHT22;46458;50.966;7.002;2023-04-24T12:08:03;10.20;99.90
20384;DHT22;46458;50.966;7.002;2023-04-24T12:10:33;10.40;99.90
20384;DHT22;46458;50.966;7.002;2023-04-24T12:13:04;10.70;99.90
20384;DHT22;46458;50.966;7.002;2023-04-24T12:15:33;10.80;99.90
20384;DHT22;46458;50.966;7.002;2023-04-24T12:18:03;10.90;99.90
20384;DHT22;46458;50.966;7.002;2023-04-24T12:20:33;10.90;99.90
20384;DHT22;46458;50.966;7.002;2023-04-24T12:23:02;10.90;99.90
20384;DHT22;46458;50.966;7.002;2023-04-24T12:25:32;10.90;99.90
20384;DHT22;46458;50.966;7.002;2023-04-24T12:28:12;11.00;99.90
20384;DHT22;46458;50.966;7.002;2023-04-24T12:30:42;11.00;99.90
20384;DHT22;46458;50.966;7.002;2023-04-24T12:33:12;11.10;99.90
20384;DHT22;46458;50.966;7.002;2023-04-24T12:35:41;11.40;99.90
20384;DHT22;46458;50.966;7.002;2023-04-24T12:38:11;11.40;99.90
20384;DHT22;46458;50.966;7.002;2023-04-24T12:40:43;11.60;99.90
20384;DHT22;46458;50.966;7.002;2023-04-24T12:43:16;11.90;99.90
20384;DHT22;46458;50.966;7.002;2023-04-24T12:45:47;12.10;99.90
20384;DHT22;46458;50.966;7.002;2023-04-24T12:48:16;12.20;99.90
20384;DHT22;46458;50.966;7.002;2023-04-24T12:50:49;12.10;99.90
20384;DHT22;46458;50.966;7.002;2023-04-24T12:53:21;12.00;99.90
20384;DHT22;46458;50.966;7.002;2023-04-24T12:55:52;11.90;99.90
20384;DHT22;46458;50.966;7.002;2023-04-24T12:58:24;11.80;99.90
20384;DHT22;46458;50.966;7.002;2023-04-24T13:00:53;11.80;99.90
20384;DHT22;46458;50.966;7.002;2023-04-24T13:03:21;11.60;99.90
20384;DHT22;46458;50.966;7.002;2023-04-24T13:05:51;11.50;99.90
20384;DHT22;46458;50.966;7.002;2023-04-24T13:08:20;11.40;99.90
20384;DHT22;46458;50.966;7.002;2023-04-24T13:10:49;11.60;99.90
20384;DHT22;46458;50.966;7.002;2023-04-24T13:13:19;11.90;99.90
20384;DHT22;46458;50.966;7.002;2023-04-24T13:15:51;12.20;99.90
20384;DHT22;46458;50.966;7.002;2023-04-24T13:18:20;12.50;99.90
20384;DHT22;46458;50.966;7.002;2023-04-24T13:20:48;12.70;99.90
20384;DHT22;46458;50.966;7.002;2023-04-24T13:23:17;12.80;99.90
20384;DHT22;46458;50.966;7.002;2023-04-24T13:25:46;12.70;99.90
20384;DHT22;46458;50.966;7.002;2023-04-24T13:28:15;12.60;99.90
20384;DHT22;46458;50.966;7.002;2023-04-24T13:30:44;12.50;99.90
20384;DHT22;46458;50.966;7.002;2023-04-24T13:33:17;12.40;99.90
20384;DHT22;46458;50.966;7.002;2023-04-24T13:35:45;12.40;99.90
20384;DHT22;46458;50.966;7.002;2023-04-24T13:38:14;12.50;99.90
20384;DHT22;46458;50.966;7.002;2023-04-24T13:40:43;12.40;99.90
20384;DHT22;46458;50.966;7.002;2023-04-24T13:43:13;12.60;99.90
20384;DHT22;46458;50.966;7.002;2023-04-24T13:45:42;12.70;99.90
20384;DHT22;46458;50.966;7.002;2023-04-24T13:48:11;12.90;99.90
20384;DHT22;46458;50.966;7.002;2023-04-24T13:50:43;12.90;99.90
20384;DHT22;46458;50.966;7.002;2023-04-24T13:53:14;12.90;99.90
20384;DHT22;46458;50.966;7.002;2023-04-24T13:55:42;12.90;99.90
20384;DHT22;46458;50.966;7.002;2023-04-24T13:58:14;12.70;99.90
20384;DHT22;46458;50.966;7.002;2023-04-24T14:00:43;12.40;99.90
20384;DHT22;46458;50.966;7.002;2023-04-24T14:03:12;12.30;99.90
20384;DHT22;46458;50.966;7.002;2023-04-24T14:05:44;12.30;99.90
20384;DHT22;46458;50.966;7.002;2023-04-24T14:08:13;12.40;99.90
20384;DHT22;46458;50.966;7.002;2023-04-24T14:10:45;12.60;99.90
20384;DHT22;46458;50.966;7.002;2023-04-24T14:13:14;12.70;99.90
20384;DHT22;46458;50.966;7.002;2023-04-24T14:15:43;13.00;99.90
20384;DHT22;46458;50.966;7.002;2023-04-24T14:18:13;13.30;99.90
20384;DHT22;46458;50.966;7.002;2023-04-24T14:20:44;13.60;99.90
20384;DHT22;46458;50.966;7.002;2023-04-24T14:23:13;13.90;99.90
20384;DHT22;46458;50.966;7.002;2023-04-24T14:25:42;13.80;99.90
20384;DHT22;46458;50.966;7.002;2023-04-24T14:28:11;13.80;99.90
20384;DHT22;46458;50.966;7.002;2023-04-24T14:30:40;13.50;99.90
20384;DHT22;46458;50.966;7.002;2023-04-24T14:33:09;13.30;99.90
20384;DHT22;46458;50.966;7.002;2023-04-24T14:35:39;13.20;99.90
20384;DHT22;46458;50.966;7.002;2023-04-24T14:38:13;13.00;99.90
20384;DHT22;46458;50.966;7.002;2023-04-24T14:40:42;13.10;99.90
20384;DHT22;46458;50.966;7.002;2023-04-24T14:43:12;13.40;99.90
20384;DHT22;46458;50.966;7.002;2023-04-24T14:45:41;13.60;99.90
20384;DHT22;46458;50.966;7.002;2023-04-24T14:48:10;13.70;99.90
20384;DHT22;46458;50.966;7.002;2023-04-24T14:50:38;13.70;99.90
20384;DHT22;46458;50.966;7.002;2023-04-24T14:53:10;13.70;99.90
20384;DHT22;46458;50.966;7.002;2023-04-24T14:55:42;13.50;99.90
20384;DHT22;46458;50.966;7.002;2023-04-24T14:58:14;13.40;99.90
20384;DHT22;46458;50.966;7.002;2023-04-24T15:00:42;13.20;99.90
20384;DHT22;46458;50.966;7.002;2023-04-24T15:03:11;13.20;99.90
20384;DHT22;46458;50.966;7.002;2023-04-24T15:05:41;13.50;99.90
20384;DHT22;46458;50.966;7.002;2023-04-24T15:08:12;13.90;99.90
20384;DHT22;46458;50.966;7.002;2023-04-24T15:10:41;14.00;99.90
20384;DHT22;46458;50.966;7.002;2023-04-24T15:13:10;14.20;99.90
20384;DHT22;46458;50.966;7.002;2023-04-24T15:15:39;14.40;99.90
20384;DHT22;46458;50.966;7.002;2023-04-24T15:18:09;14.40;99.90
20384;DHT22;46458;50.966;7.002;2023-04-24T15:20:38;14.30;99.90
20384;DHT22;46458;50.966;7.002;2023-04-24T15:23:08;14.10;99.90
20384;DHT22;46458;50.966;7.002;2023-04-24T15:25:40;14.00;99.90
20384;DHT22;46458;50.966;7.002;2023-04-24T15:28:09;14.00;99.90
20384;DHT22;46458;50.966;7.002;2023-04-24T15:30:38;14.10;99.90
20384;DHT22;46458;50.966;7.002;2023-04-24T15:33:10;14.00;99.90
20384;DHT22;46458;50.966;7.002;2023-04-24T15:35:39;14.10;99.90
20384;DHT22;46458;50.966;7.002;2023-04-24T15:38:08;14.10;99.90
20384;DHT22;46458;50.966;7.002;2023-04-24T15:40:39;14.20;99.90
20384;DHT22;46458;50.966;7.002;2023-04-24T15:43:08;14.50;99.90
20384;DHT22;46458;50.966;7.002;2023-04-24T15:45:37;14.60;99.90
20384;DHT22;46458;50.966;7.002;2023-04-24T15:48:06;14.90;99.90
20384;DHT22;46458;50.966;7.002;2023-04-24T15:50:38;15.00;99.90
20384;DHT22;46458;50.966;7.002;2023-04-24T15:53:07;15.20;99.90
20384;DHT22;46458;50.966;7.002;2023-04-24T15:55:38;15.20;99.90
20384;DHT22;46458;50.966;7.002;2023-04-24T15:58:08;14.90;99.90
20384;DHT22;46458;50.966;7.002;2023-04-24T16:00:37;14.90;99.90